sensor_id;sensor_type;location;lat;lon;timestamp;P1;durP1;ratioP1;P2;durP2;ratioP2
71475;SDS011;59286;59.274;17.974;2023-08-06T00:00:27;6.20;;;3.55;;
71475;SDS011;59286;59.274;17.974;2023-08-06T00:02:52;11.77;;;4.18;;
71475;SDS011;59286;59.274;17.974;2023-08-06T00:05:18;13.10;;;4.80;;
71475;SDS011;59286;59.274;17.974;2023-08-06T00:07:46;6.97;;;3.83;;
71475;SDS011;59286;59.274;17.974;2023-08-06T00:10:14;8.65;;;3.80;;
71475;SDS011;59286;59.274;17.974;2023-08-06T00:12:40;5.13;;;3.40;;
71475;SDS011;59286;59.274;17.974;2023-08-06T00:15:05;10.68;;;3.92;;
71475;SDS011;59286;59.274;17.974;2023-08-06T00:17:31;11.30;;;3.72;;
71475;SDS011;59286;59.274;17.974;2023-08-06T00:19:57;5.38;;;3.78;;
71475;SDS011;59286;59.274;17.974;2023-08-06T00:22:22;12.23;;;5.20;;
71475;SDS011;59286;59.274;17.974;2023-08-06T00:24:47;5.40;;;3.47;;
71475;SDS011;59286;59.274;17.974;2023-08-06T00:27:13;11.23;;;4.00;;
71475;SDS011;59286;59.274;17.974;2023-08-06T00:29:38;10.90;;;4.70;;
71475;SDS011;59286;59.274;17.974;2023-08-06T00:32:03;6.60;;;3.53;;
71475;SDS011;59286;59.274;17.974;2023-08-06T00:34:29;7.88;;;3.22;;
71475;SDS011;59286;59.274;17.974;2023-08-06T00:36:54;8.63;;;4.57;;
71475;SDS011;59286;59.274;17.974;2023-08-06T00:39:19;7.25;;;4.07;;
71475;SDS011;59286;59.274;17.974;2023-08-06T00:41:45;8.02;;;4.07;;
71475;SDS011;59286;59.274;17.974;2023-08-06T00:44:10;7.50;;;3.90;;
71475;SDS011;59286;59.274;17.974;2023-08-06T00:46:35;8.48;;;4.30;;
71475;SDS011;59286;59.274;17.974;2023-08-06T00:49:01;5.95;;;3.63;;
71475;SDS011;59286;59.274;17.974;2023-08-06T00:51:27;7.47;;;4.15;;
71475;SDS011;59286;59.274;17.974;2023-08-06T00:53:52;9.65;;;5.18;;
71475;SDS011;59286;59.274;17.974;2023-08-06T00:56:18;7.55;;;4.10;;
71475;SDS011;59286;59.274;17.974;2023-08-06T00:58:44;5.15;;;3.67;;
71475;SDS011;59286;59.274;17.974;2023-08-06T01:01:10;8.25;;;4.82;;
71475;SDS011;59286;59.274;17.974;2023-08-06T01:03:36;10.05;;;5.57;;
71475;SDS011;59286;59.274;17.974;2023-08-06T01:06:01;5.97;;;4.20;;
71475;SDS011;59286;59.274;17.974;2023-08-06T01:11:14;10.88;;;6.07;;
71475;SDS011;59286;59.274;17.974;2023-08-06T01:13:54;10.98;;;5.43;;
71475;SDS011;59286;59.274;17.974;2023-08-06T01:16:43;8.75;;;4.70;;
71475;SDS011;59286;59.274;17.974;2023-08-06T01:19:16;7.70;;;4.13;;
71475;SDS011;59286;59.274;17.974;2023-08-06T01:21:42;10.50;;;4.45;;
71475;SDS011;59286;59.274;17.974;2023-08-06T01:24:07;10.68;;;5.32;;
71475;SDS011;59286;59.274;17.974;2023-08-06T01:26:35;8.45;;;4.00;;
71475;SDS011;59286;59.274;17.974;2023-08-06T01:31:41;7.55;;;3.97;;
71475;SDS011;59286;59.274;17.974;2023-08-06T01:34:17;7.25;;;3.83;;
71475;SDS011;59286;59.274;17.974;2023-08-06T01:36:45;7.20;;;4.15;;
71475;SDS011;59286;59.274;17.974;2023-08-06T01:39:11;9.38;;;4.50;;
71475;SDS011;59286;59.274;17.974;2023-08-06T01:41:36;7.30;;;4.00;;
71475;SDS011;59286;59.274;17.974;2023-08-06T01:44:02;8.80;;;4.25;;
71475;SDS011;59286;59.274;17.974;2023-08-06T01:46:27;9.88;;;4.80;;
71475;SDS011;59286;59.274;17.974;2023-08-06T01:48:52;11.32;;;4.15;;
71475;SDS011;59286;59.274;17.974;2023-08-06T01:51:18;8.35;;;5.07;;
71475;SDS011;59286;59.274;17.974;2023-08-06T01:53:43;7.40;;;4.97;;
71475;SDS011;59286;59.274;17.974;2023-08-06T01:56:08;8.80;;;4.32;;
71475;SDS011;59286;59.274;17.974;2023-08-06T01:58:34;8.27;;;4.35;;
71475;SDS011;59286;59.274;17.974;2023-08-06T02:01:00;6.53;;;4.03;;
71475;SDS011;59286;59.274;17.974;2023-08-06T02:03:26;7.00;;;3.75;;
71475;SDS011;59286;59.274;17.974;2023-08-06T02:05:54;11.75;;;6.18;;
71475;SDS011;59286;59.274;17.974;2023-08-06T02:08:19;6.32;;;4.20;;
71475;SDS011;59286;59.274;17.974;2023-08-06T02:10:45;12.30;;;5.55;;
71475;SDS011;59286;59.274;17.974;2023-08-06T02:13:10;14.73;;;5.40;;
71475;SDS011;59286;59.274;17.974;2023-08-06T02:15:41;6.60;;;4.40;;
71475;SDS011;59286;59.274;17.974;2023-08-06T02:18:07;6.53;;;4.13;;
71475;SDS011;59286;59.274;17.974;2023-08-06T02:20:32;9.93;;;4.65;;
71475;SDS011;59286;59.274;17.974;2023-08-06T02:22:57;8.55;;;5.10;;
71475;SDS011;59286;59.274;17.974;2023-08-06T02:25:23;6.03;;;3.47;;
71475;SDS011;59286;59.274;17.974;2023-08-06T02:27:49;6.65;;;3.90;;
71475;SDS011;59286;59.274;17.974;2023-08-06T02:30:14;5.35;;;3.50;;
71475;SDS011;59286;59.274;17.974;2023-08-06T02:32:39;7.13;;;4.13;;
71475;SDS011;59286;59.274;17.974;2023-08-06T02:35:05;8.30;;;4.40;;
71475;SDS011;59286;59.274;17.974;2023-08-06T02:37:32;9.93;;;5.30;;
71475;SDS011;59286;59.274;17.974;2023-08-06T02:39:59;5.25;;;3.75;;
71475;SDS011;59286;59.274;17.974;2023-08-06T02:42:24;6.60;;;3.42;;
71475;SDS011;59286;59.274;17.974;2023-08-06T02:44:51;8.88;;;5.07;;
71475;SDS011;59286;59.274;17.974;2023-08-06T02:47:17;6.68;;;4.82;;
71475;SDS011;59286;59.274;17.974;2023-08-06T02:49:43;4.43;;;3.47;;
71475;SDS011;59286;59.274;17.974;2023-08-06T02:52:08;7.38;;;3.80;;
71475;SDS011;59286;59.274;17.974;2023-08-06T02:54:34;9.25;;;4.00;;
71475;SDS011;59286;59.274;17.974;2023-08-06T02:56:59;6.05;;;3.72;;
71475;SDS011;59286;59.274;17.974;2023-08-06T02:59:24;5.35;;;3.50;;
71475;SDS011;59286;59.274;17.974;2023-08-06T03:01:49;7.22;;;4.20;;
71475;SDS011;59286;59.274;17.974;2023-08-06T03:04:15;8.07;;;5.00;;
71475;SDS011;59286;59.274;17.974;2023-08-06T03:06:42;6.07;;;4.03;;
71475;SDS011;59286;59.274;17.974;2023-08-06T03:09:07;5.30;;;3.67;;
71475;SDS011;59286;59.274;17.974;2023-08-06T03:11:33;7.85;;;3.83;;
71475;SDS011;59286;59.274;17.974;2023-08-06T03:13:58;5.88;;;3.90;;
71475;SDS011;59286;59.274;17.974;2023-08-06T03:16:24;8.52;;;4.53;;
71475;SDS011;59286;59.274;17.974;2023-08-06T03:18:49;8.70;;;5.20;;
71475;SDS011;59286;59.274;17.974;2023-08-06T03:21:14;4.55;;;3.65;;
71475;SDS011;59286;59.274;17.974;2023-08-06T03:23:40;8.55;;;3.80;;
71475;SDS011;59286;59.274;17.974;2023-08-06T03:26:05;7.15;;;4.20;;
71475;SDS011;59286;59.274;17.974;2023-08-06T03:28:30;9.25;;;4.13;;
71475;SDS011;59286;59.274;17.974;2023-08-06T03:31:02;8.75;;;4.00;;
71475;SDS011;59286;59.274;17.974;2023-08-06T03:33:28;6.20;;;3.90;;
71475;SDS011;59286;59.274;17.974;2023-08-06T03:35:53;7.13;;;3.90;;
71475;SDS011;59286;59.274;17.974;2023-08-06T03:38:19;6.40;;;4.03;;
71475;SDS011;59286;59.274;17.974;2023-08-06T03:40:44;8.27;;;4.60;;
71475;SDS011;59286;59.274;17.974;2023-08-06T03:43:11;8.13;;;3.22;;
71475;SDS011;59286;59.274;17.974;2023-08-06T03:45:37;5.63;;;3.90;;
71475;SDS011;59286;59.274;17.974;2023-08-06T03:48:02;5.07;;;3.47;;
71475;SDS011;59286;59.274;17.974;2023-08-06T03:50:28;10.90;;;3.72;;
71475;SDS011;59286;59.274;17.974;2023-08-06T03:52:53;6.88;;;3.40;;
71475;SDS011;59286;59.274;17.974;2023-08-06T03:55:18;8.13;;;4.50;;
71475;SDS011;59286;59.274;17.974;2023-08-06T03:57:44;8.43;;;4.05;;
71475;SDS011;59286;59.274;17.974;2023-08-06T04:00:09;10.25;;;4.40;;
71475;SDS011;59286;59.274;17.974;2023-08-06T04:02:35;7.88;;;4.45;;
71475;SDS011;59286;59.274;17.974;2023-08-06T04:05:00;11.27;;;4.68;;
71475;SDS011;59286;59.274;17.974;2023-08-06T04:07:26;5.43;;;4.03;;
71475;SDS011;59286;59.274;17.974;2023-08-06T04:09:52;8.13;;;4.13;;
71475;SDS011;59286;59.274;17.974;2023-08-06T04:12:23;7.07;;;3.97;;
71475;SDS011;59286;59.274;17.974;2023-08-06T04:14:48;6.47;;;4.22;;
71475;SDS011;59286;59.274;17.974;2023-08-06T04:17:14;6.18;;;3.95;;
71475;SDS011;59286;59.274;17.974;2023-08-06T04:19:40;9.60;;;4.88;;
71475;SDS011;59286;59.274;17.974;2023-08-06T04:22:05;5.70;;;3.58;;
71475;SDS011;59286;59.274;17.974;2023-08-06T04:24:31;7.38;;;4.35;;
71475;SDS011;59286;59.274;17.974;2023-08-06T04:26:56;10.38;;;4.55;;
71475;SDS011;59286;59.274;17.974;2023-08-06T04:29:22;7.10;;;4.72;;
71475;SDS011;59286;59.274;17.974;2023-08-06T04:31:47;9.60;;;4.72;;
71475;SDS011;59286;59.274;17.974;2023-08-06T04:34:12;8.65;;;4.93;;
71475;SDS011;59286;59.274;17.974;2023-08-06T04:36:38;6.75;;;3.85;;
71475;SDS011;59286;59.274;17.974;2023-08-06T04:39:04;6.10;;;3.92;;
71475;SDS011;59286;59.274;17.974;2023-08-06T04:41:29;5.93;;;3.75;;
71475;SDS011;59286;59.274;17.974;2023-08-06T04:43:55;8.27;;;3.95;;
71475;SDS011;59286;59.274;17.974;2023-08-06T04:46:21;6.50;;;3.60;;
71475;SDS011;59286;59.274;17.974;2023-08-06T04:48:47;9.52;;;3.90;;
71475;SDS011;59286;59.274;17.974;2023-08-06T04:51:12;11.57;;;4.05;;
71475;SDS011;59286;59.274;17.974;2023-08-06T04:53:37;7.30;;;3.90;;
71475;SDS011;59286;59.274;17.974;2023-08-06T04:56:03;6.47;;;3.97;;
71475;SDS011;59286;59.274;17.974;2023-08-06T04:58:28;9.52;;;4.40;;
71475;SDS011;59286;59.274;17.974;2023-08-06T05:00:54;7.90;;;4.63;;
71475;SDS011;59286;59.274;17.974;2023-08-06T05:03:19;6.53;;;4.25;;
71475;SDS011;59286;59.274;17.974;2023-08-06T05:05:45;8.43;;;3.70;;
71475;SDS011;59286;59.274;17.974;2023-08-06T05:08:13;7.72;;;4.28;;
71475;SDS011;59286;59.274;17.974;2023-08-06T05:10:42;9.52;;;4.50;;
71475;SDS011;59286;59.274;17.974;2023-08-06T05:13:08;8.40;;;3.85;;
71475;SDS011;59286;59.274;17.974;2023-08-06T05:15:33;6.80;;;4.38;;
71475;SDS011;59286;59.274;17.974;2023-08-06T05:17:58;11.10;;;3.90;;
71475;SDS011;59286;59.274;17.974;2023-08-06T05:20:23;7.50;;;4.30;;
71475;SDS011;59286;59.274;17.974;2023-08-06T05:22:49;9.15;;;4.38;;
71475;SDS011;59286;59.274;17.974;2023-08-06T05:25:14;7.28;;;3.67;;
71475;SDS011;59286;59.274;17.974;2023-08-06T05:27:39;9.70;;;3.88;;
71475;SDS011;59286;59.274;17.974;2023-08-06T05:30:05;8.57;;;3.92;;
71475;SDS011;59286;59.274;17.974;2023-08-06T05:32:31;6.63;;;4.15;;
71475;SDS011;59286;59.274;17.974;2023-08-06T05:34:56;10.05;;;4.03;;
71475;SDS011;59286;59.274;17.974;2023-08-06T05:37:21;10.02;;;4.28;;
71475;SDS011;59286;59.274;17.974;2023-08-06T05:39:47;7.85;;;3.85;;
71475;SDS011;59286;59.274;17.974;2023-08-06T05:42:12;11.02;;;4.00;;
71475;SDS011;59286;59.274;17.974;2023-08-06T05:44:37;10.30;;;4.10;;
71475;SDS011;59286;59.274;17.974;2023-08-06T05:47:03;7.60;;;3.63;;
71475;SDS011;59286;59.274;17.974;2023-08-06T05:49:28;10.02;;;3.70;;
71475;SDS011;59286;59.274;17.974;2023-08-06T05:51:54;7.82;;;3.90;;
71475;SDS011;59286;59.274;17.974;2023-08-06T05:54:19;6.35;;;3.38;;
71475;SDS011;59286;59.274;17.974;2023-08-06T05:56:44;7.53;;;3.13;;
71475;SDS011;59286;59.274;17.974;2023-08-06T05:59:10;9.27;;;3.47;;
71475;SDS011;59286;59.274;17.974;2023-08-06T06:01:35;5.72;;;2.80;;
71475;SDS011;59286;59.274;17.974;2023-08-06T06:04:01;9.43;;;2.95;;
71475;SDS011;59286;59.274;17.974;2023-08-06T06:06:26;6.55;;;2.88;;
71475;SDS011;59286;59.274;17.974;2023-08-06T06:08:52;7.68;;;2.60;;
71475;SDS011;59286;59.274;17.974;2023-08-06T06:11:17;6.32;;;2.80;;
71475;SDS011;59286;59.274;17.974;2023-08-06T06:13:46;7.07;;;2.50;;
71475;SDS011;59286;59.274;17.974;2023-08-06T06:16:12;4.22;;;2.40;;
71475;SDS011;59286;59.274;17.974;2023-08-06T06:18:37;7.35;;;2.58;;
71475;SDS011;59286;59.274;17.974;2023-08-06T06:21:02;7.43;;;2.45;;
71475;SDS011;59286;59.274;17.974;2023-08-06T06:23:28;4.82;;;2.35;;
71475;SDS011;59286;59.274;17.974;2023-08-06T06:25:53;5.88;;;2.47;;
71475;SDS011;59286;59.274;17.974;2023-08-06T06:28:19;3.35;;;2.03;;
71475;SDS011;59286;59.274;17.974;2023-08-06T06:30:44;6.55;;;2.50;;
71475;SDS011;59286;59.274;17.974;2023-08-06T06:33:10;4.68;;;1.98;;
71475;SDS011;59286;59.274;17.974;2023-08-06T06:35:35;7.10;;;2.25;;
71475;SDS011;59286;59.274;17.974;2023-08-06T06:38:02;5.85;;;2.20;;
71475;SDS011;59286;59.274;17.974;2023-08-06T06:40:27;4.18;;;2.00;;
71475;SDS011;59286;59.274;17.974;2023-08-06T06:42:53;4.53;;;1.98;;
71475;SDS011;59286;59.274;17.974;2023-08-06T06:45:18;5.10;;;1.73;;
71475;SDS011;59286;59.274;17.974;2023-08-06T06:47:43;3.70;;;1.70;;
71475;SDS011;59286;59.274;17.974;2023-08-06T06:50:09;5.75;;;1.90;;
71475;SDS011;59286;59.274;17.974;2023-08-06T06:52:34;4.95;;;1.80;;
71475;SDS011;59286;59.274;17.974;2023-08-06T06:55:00;4.32;;;1.95;;
71475;SDS011;59286;59.274;17.974;2023-08-06T06:57:25;3.45;;;2.00;;
71475;SDS011;59286;59.274;17.974;2023-08-06T06:59:51;5.10;;;1.70;;
71475;SDS011;59286;59.274;17.974;2023-08-06T07:02:16;6.20;;;1.67;;
71475;SDS011;59286;59.274;17.974;2023-08-06T07:04:42;3.90;;;1.50;;
71475;SDS011;59286;59.274;17.974;2023-08-06T07:07:07;3.88;;;1.80;;
71475;SDS011;59286;59.274;17.974;2023-08-06T07:09:32;5.85;;;2.17;;
71475;SDS011;59286;59.274;17.974;2023-08-06T07:11:57;5.53;;;1.73;;
71475;SDS011;59286;59.274;17.974;2023-08-06T07:14:25;3.72;;;1.75;;
71475;SDS011;59286;59.274;17.974;2023-08-06T07:16:50;4.60;;;1.70;;
71475;SDS011;59286;59.274;17.974;2023-08-06T07:19:16;4.63;;;1.85;;
71475;SDS011;59286;59.274;17.974;2023-08-06T07:21:41;6.28;;;1.80;;
71475;SDS011;59286;59.274;17.974;2023-08-06T07:24:06;3.00;;;1.63;;
71475;SDS011;59286;59.274;17.974;2023-08-06T07:26:32;4.65;;;2.13;;
71475;SDS011;59286;59.274;17.974;2023-08-06T07:28:57;4.47;;;2.22;;
71475;SDS011;59286;59.274;17.974;2023-08-06T07:31:22;7.07;;;2.03;;
71475;SDS011;59286;59.274;17.974;2023-08-06T07:33:48;5.10;;;2.10;;
71475;SDS011;59286;59.274;17.974;2023-08-06T07:36:13;6.00;;;1.85;;
71475;SDS011;59286;59.274;17.974;2023-08-06T07:38:39;5.13;;;1.85;;
71475;SDS011;59286;59.274;17.974;2023-08-06T07:41:06;4.75;;;2.05;;
71475;SDS011;59286;59.274;17.974;2023-08-06T07:43:31;4.53;;;1.88;;
71475;SDS011;59286;59.274;17.974;2023-08-06T07:45:57;5.85;;;2.03;;
71475;SDS011;59286;59.274;17.974;2023-08-06T07:48:24;4.88;;;2.22;;
71475;SDS011;59286;59.274;17.974;2023-08-06T07:50:56;6.55;;;1.92;;
71475;SDS011;59286;59.274;17.974;2023-08-06T07:53:22;4.55;;;1.90;;
71475;SDS011;59286;59.274;17.974;2023-08-06T07:55:52;6.22;;;1.90;;
71475;SDS011;59286;59.274;17.974;2023-08-06T07:58:18;6.05;;;2.13;;
71475;SDS011;59286;59.274;17.974;2023-08-06T08:00:44;5.25;;;2.20;;
71475;SDS011;59286;59.274;17.974;2023-08-06T08:03:13;6.22;;;2.38;;
71475;SDS011;59286;59.274;17.974;2023-08-06T08:05:40;6.93;;;2.30;;
71475;SDS011;59286;59.274;17.974;2023-08-06T08:08:06;7.95;;;2.20;;
71475;SDS011;59286;59.274;17.974;2023-08-06T08:10:32;4.70;;;2.25;;
71475;SDS011;59286;59.274;17.974;2023-08-06T08:12:59;7.03;;;2.33;;
71475;SDS011;59286;59.274;17.974;2023-08-06T08:15:25;7.03;;;2.10;;
71475;SDS011;59286;59.274;17.974;2023-08-06T08:17:51;4.63;;;2.17;;
71475;SDS011;59286;59.274;17.974;2023-08-06T08:20:17;5.57;;;2.35;;
71475;SDS011;59286;59.274;17.974;2023-08-06T08:22:44;3.42;;;1.90;;
71475;SDS011;59286;59.274;17.974;2023-08-06T08:25:10;4.30;;;2.03;;
71475;SDS011;59286;59.274;17.974;2023-08-06T08:27:35;6.35;;;1.98;;
71475;SDS011;59286;59.274;17.974;2023-08-06T08:30:00;7.13;;;2.25;;
71475;SDS011;59286;59.274;17.974;2023-08-06T08:32:26;6.88;;;2.28;;
71475;SDS011;59286;59.274;17.974;2023-08-06T08:34:51;7.43;;;2.50;;
71475;SDS011;59286;59.274;17.974;2023-08-06T08:37:16;6.13;;;2.28;;
71475;SDS011;59286;59.274;17.974;2023-08-06T08:39:42;6.32;;;1.85;;
71475;SDS011;59286;59.274;17.974;2023-08-06T08:42:07;7.55;;;2.28;;
71475;SDS011;59286;59.274;17.974;2023-08-06T08:44:35;5.07;;;2.00;;
71475;SDS011;59286;59.274;17.974;2023-08-06T08:47:04;5.43;;;2.25;;
71475;SDS011;59286;59.274;17.974;2023-08-06T08:49:31;5.25;;;2.17;;
71475;SDS011;59286;59.274;17.974;2023-08-06T08:51:57;5.82;;;2.03;;
71475;SDS011;59286;59.274;17.974;2023-08-06T08:54:24;5.70;;;2.13;;
71475;SDS011;59286;59.274;17.974;2023-08-06T08:56:51;8.43;;;2.10;;
71475;SDS011;59286;59.274;17.974;2023-08-06T08:59:16;5.63;;;1.92;;
71475;SDS011;59286;59.274;17.974;2023-08-06T09:01:43;7.13;;;2.22;;
71475;SDS011;59286;59.274;17.974;2023-08-06T09:04:11;6.80;;;1.92;;
71475;SDS011;59286;59.274;17.974;2023-08-06T09:06:38;4.70;;;2.03;;
71475;SDS011;59286;59.274;17.974;2023-08-06T09:09:09;8.77;;;2.10;;
71475;SDS011;59286;59.274;17.974;2023-08-06T09:11:42;10.23;;;2.47;;
71475;SDS011;59286;59.274;17.974;2023-08-06T09:14:08;5.93;;;2.08;;
71475;SDS011;59286;59.274;17.974;2023-08-06T09:16:34;5.07;;;2.03;;
71475;SDS011;59286;59.274;17.974;2023-08-06T09:19:06;5.63;;;2.45;;
71475;SDS011;59286;59.274;17.974;2023-08-06T09:21:41;9.23;;;2.35;;
71475;SDS011;59286;59.274;17.974;2023-08-06T09:24:16;6.28;;;2.33;;
71475;SDS011;59286;59.274;17.974;2023-08-06T09:26:43;4.80;;;2.15;;
71475;SDS011;59286;59.274;17.974;2023-08-06T09:29:10;8.27;;;2.45;;
71475;SDS011;59286;59.274;17.974;2023-08-06T09:31:49;5.13;;;2.38;;
71475;SDS011;59286;59.274;17.974;2023-08-06T09:34:19;6.15;;;2.20;;
71475;SDS011;59286;59.274;17.974;2023-08-06T09:36:49;7.25;;;2.50;;
71475;SDS011;59286;59.274;17.974;2023-08-06T09:39:19;6.75;;;2.33;;
71475;SDS011;59286;59.274;17.974;2023-08-06T09:41:47;7.32;;;2.10;;
71475;SDS011;59286;59.274;17.974;2023-08-06T09:44:17;6.90;;;2.28;;
71475;SDS011;59286;59.274;17.974;2023-08-06T09:46:50;4.50;;;2.10;;
71475;SDS011;59286;59.274;17.974;2023-08-06T09:49:20;6.28;;;2.20;;
71475;SDS011;59286;59.274;17.974;2023-08-06T09:51:46;5.90;;;1.95;;
71475;SDS011;59286;59.274;17.974;2023-08-06T09:54:16;5.38;;;2.10;;
71475;SDS011;59286;59.274;17.974;2023-08-06T09:56:41;7.65;;;2.50;;
71475;SDS011;59286;59.274;17.974;2023-08-06T09:59:07;6.20;;;2.17;;
71475;SDS011;59286;59.274;17.974;2023-08-06T10:01:34;5.38;;;2.38;;
71475;SDS011;59286;59.274;17.974;2023-08-06T10:04:00;8.40;;;2.22;;
71475;SDS011;59286;59.274;17.974;2023-08-06T10:06:26;6.07;;;2.50;;
71475;SDS011;59286;59.274;17.974;2023-08-06T10:08:53;7.13;;;2.53;;
71475;SDS011;59286;59.274;17.974;2023-08-06T10:11:19;5.35;;;2.25;;
71475;SDS011;59286;59.274;17.974;2023-08-06T10:13:49;8.57;;;2.00;;
71475;SDS011;59286;59.274;17.974;2023-08-06T10:16:17;5.60;;;2.03;;
71475;SDS011;59286;59.274;17.974;2023-08-06T10:18:44;4.75;;;2.00;;
71475;SDS011;59286;59.274;17.974;2023-08-06T10:21:11;5.28;;;2.30;;
71475;SDS011;59286;59.274;17.974;2023-08-06T10:23:37;10.25;;;2.50;;
71475;SDS011;59286;59.274;17.974;2023-08-06T10:26:05;5.68;;;2.30;;
71475;SDS011;59286;59.274;17.974;2023-08-06T10:28:34;4.97;;;2.28;;
71475;SDS011;59286;59.274;17.974;2023-08-06T10:31:01;7.80;;;2.40;;
71475;SDS011;59286;59.274;17.974;2023-08-06T10:33:39;10.52;;;2.33;;
71475;SDS011;59286;59.274;17.974;2023-08-06T10:36:07;6.25;;;2.50;;
71475;SDS011;59286;59.274;17.974;2023-08-06T10:38:43;6.57;;;2.25;;
71475;SDS011;59286;59.274;17.974;2023-08-06T10:41:23;10.90;;;2.80;;
71475;SDS011;59286;59.274;17.974;2023-08-06T10:43:53;11.00;;;2.65;;
71475;SDS011;59286;59.274;17.974;2023-08-06T10:46:31;6.72;;;2.25;;
71475;SDS011;59286;59.274;17.974;2023-08-06T10:48:56;5.88;;;2.30;;
71475;SDS011;59286;59.274;17.974;2023-08-06T10:51:21;6.35;;;2.50;;
71475;SDS011;59286;59.274;17.974;2023-08-06T10:53:47;5.70;;;2.47;;
71475;SDS011;59286;59.274;17.974;2023-08-06T10:56:15;6.90;;;2.40;;
71475;SDS011;59286;59.274;17.974;2023-08-06T10:58:44;5.45;;;2.35;;
71475;SDS011;59286;59.274;17.974;2023-08-06T11:01:11;6.63;;;2.30;;
71475;SDS011;59286;59.274;17.974;2023-08-06T11:03:37;8.15;;;2.78;;
71475;SDS011;59286;59.274;17.974;2023-08-06T11:06:03;7.68;;;2.60;;
71475;SDS011;59286;59.274;17.974;2023-08-06T11:08:33;8.55;;;3.00;;
71475;SDS011;59286;59.274;17.974;2023-08-06T11:11:15;12.23;;;2.92;;
71475;SDS011;59286;59.274;17.974;2023-08-06T11:13:42;7.28;;;2.90;;
71475;SDS011;59286;59.274;17.974;2023-08-06T11:16:08;9.85;;;3.47;;
71475;SDS011;59286;59.274;17.974;2023-08-06T11:18:35;9.25;;;3.17;;
71475;SDS011;59286;59.274;17.974;2023-08-06T11:21:01;10.95;;;3.10;;
71475;SDS011;59286;59.274;17.974;2023-08-06T11:23:27;7.20;;;3.33;;
71475;SDS011;59286;59.274;17.974;2023-08-06T11:25:56;8.73;;;3.83;;
71475;SDS011;59286;59.274;17.974;2023-08-06T11:28:22;12.27;;;3.90;;
71475;SDS011;59286;59.274;17.974;2023-08-06T11:30:48;14.20;;;4.18;;
71475;SDS011;59286;59.274;17.974;2023-08-06T11:33:14;11.35;;;3.72;;
71475;SDS011;59286;59.274;17.974;2023-08-06T11:35:39;9.95;;;3.80;;
71475;SDS011;59286;59.274;17.974;2023-08-06T11:38:05;10.07;;;3.72;;
71475;SDS011;59286;59.274;17.974;2023-08-06T11:40:31;10.23;;;4.35;;
71475;SDS011;59286;59.274;17.974;2023-08-06T11:42:58;13.90;;;5.07;;
71475;SDS011;59286;59.274;17.974;2023-08-06T11:45:23;10.93;;;4.78;;
71475;SDS011;59286;59.274;17.974;2023-08-06T11:47:50;11.07;;;4.50;;
71475;SDS011;59286;59.274;17.974;2023-08-06T11:50:24;12.57;;;4.63;;
71475;SDS011;59286;59.274;17.974;2023-08-06T11:52:52;11.18;;;4.80;;
71475;SDS011;59286;59.274;17.974;2023-08-06T11:55:22;10.68;;;5.32;;
71475;SDS011;59286;59.274;17.974;2023-08-06T11:57:49;8.85;;;4.63;;
71475;SDS011;59286;59.274;17.974;2023-08-06T12:00:14;10.50;;;5.07;;
71475;SDS011;59286;59.274;17.974;2023-08-06T12:02:42;12.18;;;5.43;;
71475;SDS011;59286;59.274;17.974;2023-08-06T12:07:36;16.10;;;6.50;;
71475;SDS011;59286;59.274;17.974;2023-08-06T12:10:03;10.32;;;5.45;;
71475;SDS011;59286;59.274;17.974;2023-08-06T12:12:28;14.15;;;6.07;;
71475;SDS011;59286;59.274;17.974;2023-08-06T12:14:54;14.77;;;6.40;;
71475;SDS011;59286;59.274;17.974;2023-08-06T12:17:20;9.52;;;5.68;;
71475;SDS011;59286;59.274;17.974;2023-08-06T12:19:46;11.02;;;6.15;;
71475;SDS011;59286;59.274;17.974;2023-08-06T12:22:12;10.50;;;6.68;;
71475;SDS011;59286;59.274;17.974;2023-08-06T12:24:39;14.45;;;7.03;;
71475;SDS011;59286;59.274;17.974;2023-08-06T12:27:08;11.07;;;5.82;;
71475;SDS011;59286;59.274;17.974;2023-08-06T12:29:34;16.40;;;6.72;;
71475;SDS011;59286;59.274;17.974;2023-08-06T12:31:59;15.68;;;7.22;;
71475;SDS011;59286;59.274;17.974;2023-08-06T12:34:25;13.02;;;7.43;;
71475;SDS011;59286;59.274;17.974;2023-08-06T12:36:50;16.25;;;6.38;;
71475;SDS011;59286;59.274;17.974;2023-08-06T12:39:15;11.52;;;6.60;;
71475;SDS011;59286;59.274;17.974;2023-08-06T12:41:41;13.68;;;6.03;;
71475;SDS011;59286;59.274;17.974;2023-08-06T12:44:08;8.98;;;5.72;;
71475;SDS011;59286;59.274;17.974;2023-08-06T12:46:33;10.48;;;5.90;;
71475;SDS011;59286;59.274;17.974;2023-08-06T12:48:59;15.23;;;7.05;;
71475;SDS011;59286;59.274;17.974;2023-08-06T12:51:24;14.45;;;7.10;;
71475;SDS011;59286;59.274;17.974;2023-08-06T12:53:50;15.77;;;8.25;;
71475;SDS011;59286;59.274;17.974;2023-08-06T12:56:15;11.10;;;6.30;;
71475;SDS011;59286;59.274;17.974;2023-08-06T12:58:40;12.13;;;6.28;;
71475;SDS011;59286;59.274;17.974;2023-08-06T13:01:06;11.10;;;6.82;;
71475;SDS011;59286;59.274;17.974;2023-08-06T13:03:32;12.18;;;6.00;;
71475;SDS011;59286;59.274;17.974;2023-08-06T13:05:57;10.55;;;6.25;;
71475;SDS011;59286;59.274;17.974;2023-08-06T13:08:23;10.55;;;6.78;;
71475;SDS011;59286;59.274;17.974;2023-08-06T13:10:48;12.95;;;6.85;;
71475;SDS011;59286;59.274;17.974;2023-08-06T13:13:14;13.38;;;6.75;;
71475;SDS011;59286;59.274;17.974;2023-08-06T13:15:39;12.68;;;7.68;;
71475;SDS011;59286;59.274;17.974;2023-08-06T13:18:05;10.32;;;6.60;;
71475;SDS011;59286;59.274;17.974;2023-08-06T13:20:30;12.63;;;6.20;;
71475;SDS011;59286;59.274;17.974;2023-08-06T13:22:57;10.07;;;7.47;;
71475;SDS011;59286;59.274;17.974;2023-08-06T13:25:23;12.63;;;6.50;;
71475;SDS011;59286;59.274;17.974;2023-08-06T13:27:49;15.35;;;7.78;;
71475;SDS011;59286;59.274;17.974;2023-08-06T13:30:15;17.63;;;6.32;;
71475;SDS011;59286;59.274;17.974;2023-08-06T13:32:42;12.10;;;6.53;;
71475;SDS011;59286;59.274;17.974;2023-08-06T13:35:07;12.55;;;6.93;;
71475;SDS011;59286;59.274;17.974;2023-08-06T13:37:33;12.10;;;5.88;;
71475;SDS011;59286;59.274;17.974;2023-08-06T13:39:58;10.82;;;6.80;;
71475;SDS011;59286;59.274;17.974;2023-08-06T13:42:24;9.85;;;6.35;;
71475;SDS011;59286;59.274;17.974;2023-08-06T13:44:49;10.85;;;5.65;;
71475;SDS011;59286;59.274;17.974;2023-08-06T13:47:14;10.43;;;6.10;;
71475;SDS011;59286;59.274;17.974;2023-08-06T13:49:40;10.35;;;5.38;;
71475;SDS011;59286;59.274;17.974;2023-08-06T13:52:05;12.73;;;5.78;;
71475;SDS011;59286;59.274;17.974;2023-08-06T13:54:31;9.68;;;6.15;;
71475;SDS011;59286;59.274;17.974;2023-08-06T13:56:57;11.00;;;6.25;;
71475;SDS011;59286;59.274;17.974;2023-08-06T13:59:22;12.32;;;7.00;;
71475;SDS011;59286;59.274;17.974;2023-08-06T14:01:49;10.88;;;6.82;;
71475;SDS011;59286;59.274;17.974;2023-08-06T14:04:15;14.48;;;7.40;;
71475;SDS011;59286;59.274;17.974;2023-08-06T14:06:40;11.68;;;6.00;;
71475;SDS011;59286;59.274;17.974;2023-08-06T14:09:06;13.77;;;7.28;;
71475;SDS011;59286;59.274;17.974;2023-08-06T14:11:32;12.80;;;6.72;;
71475;SDS011;59286;59.274;17.974;2023-08-06T14:13:58;15.85;;;7.22;;
71475;SDS011;59286;59.274;17.974;2023-08-06T14:16:25;12.90;;;7.68;;
71475;SDS011;59286;59.274;17.974;2023-08-06T14:18:50;13.82;;;7.90;;
71475;SDS011;59286;59.274;17.974;2023-08-06T14:21:16;17.80;;;8.27;;
71475;SDS011;59286;59.274;17.974;2023-08-06T14:23:41;8.77;;;6.22;;
71475;SDS011;59286;59.274;17.974;2023-08-06T14:26:06;13.20;;;7.43;;
71475;SDS011;59286;59.274;17.974;2023-08-06T14:28:32;12.10;;;7.13;;
71475;SDS011;59286;59.274;17.974;2023-08-06T14:30:57;14.30;;;7.72;;
71475;SDS011;59286;59.274;17.974;2023-08-06T14:33:23;13.25;;;7.93;;